Vancouver, WA

11:48 AM PDT on September 22, 2014 (GMT -0700)
Hazel Dell | Change Station
CLOSE
Current Station
Personal Weather Station
Location: Vancouver, WA
Elevation: 260 ft
Nearby Weather Stations

Elev 260 ft 45.69 °N, 122.65 °W | Updated 5 seconds ago

Overcast
Overcast
65.6 °F
Feels Like 65.6 °F
N
3.5
Wind Variable Wind from SE
Gusts 3.5 mph

Today
High -- | Low -- °F
--% Chance of Precip.
Yesterday
High -- | Low -- °F
Precip. -- in
6:57 AM 7:07 PM
Waning Crescent, 2% visible
Pressure 30.01 in
Visibility 10.0 miles
Clouds Overcast 2900 ft
Dew Point 56 °F
Humidity 72%
Rainfall 0.00 in
Snow Depth 0 in , 0 in , 0 in
UV 2 out of 12
Pollen 2.20 out of 12
Air Quality Not available.
Flu Activity Not available.
SPECI KVUO 221839Z AUTO 13006KT 10SM OVC029 19/12 A3001 RMK AO2 T01940117

More Conditions Fewer Conditions

Pressure 30.01 in
Visibility 10.0 miles
Clouds Overcast 2900 ft
Dew Point 56 °F
Humidity 72%
Rainfall 0.00 in
Snow Depth 0 in , 0 in , 0 in
UV 2 out of 12
Pollen 2.20 out of 12
Air Quality Not available.
Flu Activity Not available.
SPECI KVUO 221839Z AUTO 13006KT 10SM OVC029 19/12 A3001 RMK AO2 T01940117

More Conditions Fewer Conditions

10-Day Weather Forecast

Almanac

Astronomy

Sep. 22, 2014 Rise Set
Actual Time 6:57 AM PDT 7:07 PM PDT
Civil Twilight 6:28 AM PDT 7:37 PM PDT
Nautical Twilight 5:53 AM PDT 8:12 PM PDT
Astronomical Twilight 5:17 AM PDT 8:48 PM PDT
Moon 5:28 AM PDT 6:19 PM PDT
Length of Visible Light 13h 09m
Length of Day
12h 10m
Tomorrow will be 3m 12s shorter.
Waning Crescent, 2% of the Moon is Illuminated
Today
Waning Crescent
Sep 24
New
Oct 1
First Quarter
Oct 8
Full
Oct 15
Last Quarter

Today's Extremes

State Highs State Lows

Community

WunderPhotos

Upload Photos

1,755,512 photos uploaded!

WunderBlogs® & News

Nearby

Snow Depth

Station Depth Elevation
Blewett Pass 0 in 4270 ft
Morse Lake 0 in 5400 ft
Stevens Pass 0 in 4070 ft
Swift Creek 0 in 3770 ft
Spencer Meadow 0 in 3400 ft

Earthquake Activity

City Distance Mag. Time & Date
No recent earthquake activity has been reported nearby.
Minimum magnitude displayed is 2.5.

Coastal Water Temperatures

Place Temperature
No Stations Reporting

Nearby Weather Stations